Time;durP1;ratioP1;P1;durP2;ratioP2;P2;SDS_P1;SDS_P2;PMS_P1;PMS_P2;Temp;Humidity;BMP_temperature;BMP_pressure;BME280_temperature;BME280_humidity;BME280_pressure;Samples;Min_cycle;Max_cycle;Signal;HPM_P1;HPM_P2
2023/09/09 00:01:06;;;;;;;;;11.00;10.00;;;;;26.42;56.49;99989.75;5048248;28;45260;-74
2023/09/09 00:03:32;;;;;;;;;9.00;8.67;;;;;26.43;55.10;99978.13;5045514;28;45393;-71
2023/09/09 00:05:57;;;;;;;;;12.00;11.00;;;;;26.52;53.02;99974.16;5045164;28;45390;-71
2023/09/09 00:08:24;;;;;;;;;8.00;8.00;;;;;26.65;51.06;99986.09;5054064;28;45950;-71
2023/09/09 00:10:49;;;;;;;;;11.00;10.00;;;;;26.72;49.59;99966.13;5047616;28;45450;-71
2023/09/09 00:13:16;;;;;;;;;10.67;9.00;;;;;26.86;48.25;99970.84;5046244;28;46024;-71
2023/09/09 00:15:42;;;;;;;;;9.33;8.33;;;;;26.95;48.47;99961.47;5052476;28;45496;-72
2023/09/09 00:18:08;;;;;;;;;10.00;8.00;;;;;27.09;47.76;99967.06;5046646;28;45382;-72
2023/09/09 00:20:36;;;;;;;;;10.00;8.00;;;;;27.24;47.52;99972.66;5050442;28;45393;-72
2023/09/09 00:23:07;;;;;;;;;10.00;9.00;;;;;27.29;47.25;99965.28;5054519;28;45525;-71
2023/09/09 00:25:37;;;;;;;;;9.00;9.00;;;;;27.25;48.02;99971.72;5044640;28;45307;-71
2023/09/09 00:28:03;;;;;;;;;9.67;8.00;;;;;27.27;47.03;99967.16;5051583;28;45464;-72
2023/09/09 00:30:29;;;;;;;;;8.00;8.00;;;;;27.35;46.17;99975.69;5037445;28;45473;-71
2023/09/09 00:32:55;;;;;;;;;10.00;9.67;;;;;27.29;47.56;99960.75;5041823;28;45536;-72
2023/09/09 00:35:21;;;;;;;;;9.67;9.00;;;;;27.35;45.81;99970.31;5045946;28;45452;-71
2023/09/09 00:37:46;;;;;;;;;10.00;8.67;;;;;27.37;47.08;99971.13;5050439;28;45407;-72
2023/09/09 00:40:12;;;;;;;;;8.00;8.00;;;;;27.40;46.66;99968.31;5056914;28;45532;-72
2023/09/09 00:42:38;;;;;;;;;8.33;8.00;;;;;27.37;47.04;99968.44;5050430;28;45615;-72
2023/09/09 00:45:04;;;;;;;;;10.00;9.00;;;;;27.36;47.39;99972.94;5047120;28;45576;-71
2023/09/09 00:47:30;;;;;;;;;8.33;8.33;;;;;27.30;47.34;99969.69;5048744;28;46195;-72
2023/09/09 00:49:57;;;;;;;;;8.00;8.00;;;;;27.38;45.42;99959.47;5041190;28;45468;-71
2023/09/09 00:52:22;;;;;;;;;10.00;9.00;;;;;27.46;44.07;99959.94;5048966;28;45572;-71
2023/09/09 00:54:48;;;;;;;;;10.00;9.00;;;;;27.55;43.75;99961.28;5043972;28;45363;-71
2023/09/09 00:57:16;;;;;;;;;9.33;9.00;;;;;27.58;43.93;99956.66;5049624;28;45422;-72
2023/09/09 00:59:42;;;;;;;;;8.00;8.00;;;;;27.55;44.70;99947.88;5050282;28;45446;-71
2023/09/09 01:02:08;;;;;;;;;9.33;8.00;;;;;27.47;44.89;99950.94;5047876;28;45544;-71
2023/09/09 01:04:34;;;;;;;;;14.00;14.00;;;;;27.46;45.09;99940.31;5052249;28;45410;-71
2023/09/09 01:07:02;;;;;;;;;8.33;8.00;;;;;27.38;45.45;99927.28;5051656;28;45442;-72
2023/09/09 01:09:30;;;;;;;;;10.67;10.33;;;;;27.38;45.31;99927.28;5040505;28;46012;-71
2023/09/09 01:11:58;;;;;;;;;8.67;8.67;;;;;27.36;45.61;99932.72;5040024;28;45536;-71
2023/09/09 01:14:24;;;;;;;;;9.67;8.33;;;;;27.37;45.28;99936.25;5051942;28;45403;-71
2023/09/09 01:16:52;;;;;;;;;12.67;10.33;;;;;27.31;47.01;99941.94;5043153;28;46024;-71
2023/09/09 01:19:27;;;;;;;;;9.33;9.00;;;;;27.31;46.16;99941.94;5043511;28;45532;-71
2023/09/09 01:21:54;;;;;;;;;7.67;7.67;;;;;27.23;47.46;99938.72;5052476;28;45523;-72
2023/09/09 01:24:20;;;;;;;;;10.00;10.00;;;;;27.11;47.68;99940.19;5048469;28;45343;-72
2023/09/09 01:26:46;;;;;;;;;9.00;8.00;;;;;27.06;49.99;99948.44;5056063;28;45485;-71
2023/09/09 01:29:12;;;;;;;;;8.33;7.67;;;;;26.87;49.44;99931.50;5047130;28;45477;-71
2023/09/09 01:31:38;;;;;;;;;11.00;10.00;;;;;26.90;50.30;99944.75;5056276;28;45236;-71
2023/09/09 01:34:04;;;;;;;;;8.00;8.00;;;;;26.91;48.68;99938.44;5056566;28;45516;-72
2023/09/09 01:36:30;;;;;;;;;9.00;9.00;;;;;26.88;48.36;99939.47;5055698;28;45623;-75
2023/09/09 01:38:55;;;;;;;;;9.00;8.00;;;;;26.88;48.39;99935.91;5053538;28;45610;-72
2023/09/09 01:41:21;;;;;;;;;8.33;8.33;;;;;26.90;48.26;99937.59;5041703;28;45515;-71
2023/09/09 01:43:46;;;;;;;;;9.00;9.00;;;;;26.89;48.77;99941.19;5056248;28;45406;-72
2023/09/09 01:46:12;;;;;;;;;8.33;7.67;;;;;26.93;48.94;99947.28;5054745;28;45601;-72
2023/09/09 01:48:38;;;;;;;;;7.67;7.33;;;;;26.93;48.44;99937.44;5046266;28;45508;-71
2023/09/09 01:51:03;;;;;;;;;9.67;9.00;;;;;26.93;47.37;99934.75;5049243;28;45461;-72
2023/09/09 01:53:29;;;;;;;;;9.00;9.00;;;;;26.91;47.70;99933.94;5051350;28;45458;-72
2023/09/09 01:56:00;;;;;;;;;10.67;8.00;;;;;26.83;47.29;99925.41;5037853;28;45505;-73
2023/09/09 01:58:26;;;;;;;;;10.33;8.33;;;;;26.90;46.92;99926.88;5039694;28;45402;-71
2023/09/09 02:00:51;;;;;;;;;10.00;9.00;;;;;26.90;45.73;99928.66;5050928;28;45451;-73
2023/09/09 02:03:17;;;;;;;;;9.00;8.00;;;;;26.91;44.64;99922.38;5059119;28;45362;-72
2023/09/09 02:05:43;;;;;;;;;9.33;8.00;;;;;26.97;44.75;99922.06;5058248;28;46189;-72
2023/09/09 02:08:08;;;;;;;;;8.33;8.00;;;;;27.04;42.30;99912.81;5042869;28;45474;-71
2023/09/09 02:10:34;;;;;;;;;4.33;4.00;;;;;27.21;42.51;99916.47;5059463;28;45436;-72
2023/09/09 02:13:00;;;;;;;;;8.00;7.33;;;;;27.24;42.86;99913.66;5047389;28;45434;-72
2023/09/09 02:15:25;;;;;;;;;6.67;5.67;;;;;27.21;41.78;99893.19;5053540;28;45951;-71
2023/09/09 02:17:51;;;;;;;;;8.00;8.00;;;;;27.35;42.44;99901.47;5058506;28;45390;-72
2023/09/09 02:20:16;;;;;;;;;8.33;8.00;;;;;27.33;41.21;99892.63;5059010;28;45286;-72
2023/09/09 02:22:42;;;;;;;;;9.67;8.00;;;;;27.45;41.49;99901.00;5059036;28;46144;-72
2023/09/09 02:25:08;;;;;;;;;9.67;9.00;;;;;27.46;41.54;99898.25;5058544;28;45253;-72
2023/09/09 02:27:34;;;;;;;;;7.33;7.00;;;;;27.41;41.48;99884.19;5053995;28;45414;-71
2023/09/09 02:30:01;;;;;;;;;6.67;6.00;;;;;27.49;40.45;99891.84;5058312;28;45669;-71
2023/09/09 02:32:27;;;;;;;;;9.33;8.33;;;;;27.48;41.16;99882.94;5057762;28;45470;-72
2023/09/09 02:34:53;;;;;;;;;8.33;7.33;;;;;27.52;40.73;99883.66;5057167;28;46209;-74
2023/09/09 02:37:20;;;;;;;;;7.33;7.00;;;;;27.60;39.94;99891.34;5058900;28;45337;-72
2023/09/09 02:39:51;;;;;;;;;9.33;8.67;;;;;27.61;39.51;99896.59;5058824;28;45494;-72
2023/09/09 02:42:18;;;;;;;;;8.00;8.00;;;;;27.65;39.96;99889.25;5057534;28;45485;-72
2023/09/09 02:44:44;;;;;;;;;9.33;9.00;;;;;27.63;39.66;99877.75;5042171;28;46141;-71
2023/09/09 02:47:12;;;;;;;;;8.00;8.00;;;;;27.71;39.85;99888.94;5052624;28;45312;-72
2023/09/09 02:49:38;;;;;;;;;9.00;8.67;;;;;27.70;39.71;99890.78;5049215;28;45715;-72
2023/09/09 02:52:04;;;;;;;;;8.00;7.00;;;;;27.69;40.01;99885.47;5058551;28;45434;-71
2023/09/09 02:54:30;;;;;;;;;6.33;6.33;;;;;27.64;39.41;99868.75;5041817;28;45501;-72
2023/09/09 02:56:55;;;;;;;;;8.67;8.00;;;;;27.72;40.15;99877.28;5058293;28;45425;-71
2023/09/09 02:59:23;;;;;;;;;9.33;8.33;;;;;27.71;39.55;99880.91;5058800;28;45524;-71
2023/09/09 03:01:48;;;;;;;;;7.67;7.00;;;;;27.65;40.01;99875.84;5049178;28;45603;-72
2023/09/09 03:04:14;;;;;;;;;8.00;8.00;;;;;27.68;40.21;99878.38;5057902;28;45311;-71
2023/09/09 03:06:40;;;;;;;;;7.00;7.00;;;;;27.61;40.01;99875.13;5057415;28;45421;-72
2023/09/09 03:09:06;;;;;;;;;10.67;9.33;;;;;27.66;40.27;99883.81;5046467;28;45492;-71
2023/09/09 03:11:32;;;;;;;;;8.33;7.00;;;;;27.65;40.09;99897.31;5053709;28;45377;-72
2023/09/09 03:13:58;;;;;;;;;7.00;7.00;;;;;27.55;40.22;99879.00;5053918;28;45531;-71
2023/09/09 03:16:24;;;;;;;;;9.00;8.67;;;;;27.57;39.99;99884.28;5044322;28;45690;-72
2023/09/09 03:18:49;;;;;;;;;9.33;9.00;;;;;27.57;40.00;99887.88;5058759;28;45575;-73
2023/09/09 03:21:15;;;;;;;;;9.00;9.00;;;;;27.60;39.84;99899.38;5058028;28;45411;-71
2023/09/09 03:23:40;;;;;;;;;9.00;7.00;;;;;27.61;39.63;99893.06;5057946;28;45977;-72
2023/09/09 03:26:06;;;;;;;;;8.33;7.33;;;;;27.61;39.90;99893.06;5057461;28;45600;-74
2023/09/09 03:28:32;;;;;;;;;9.00;9.00;;;;;27.58;39.43;99894.09;5057502;28;45423;-72
2023/09/09 03:30:59;;;;;;;;;9.67;8.67;;;;;27.51;39.91;99890.81;5057557;28;45534;-72
2023/09/09 03:33:27;;;;;;;;;10.00;9.00;;;;;27.52;40.15;99900.63;5055577;28;45385;-71
2023/09/09 03:35:53;;;;;;;;;8.67;8.67;;;;;27.51;39.65;99906.06;5042177;28;45473;-72
2023/09/09 03:38:18;;;;;;;;;8.00;8.00;;;;;27.49;39.07;99906.13;5058332;28;45359;-72
2023/09/09 03:40:44;;;;;;;;;8.00;8.00;;;;;27.49;39.46;99908.81;5057755;28;45336;-72
2023/09/09 03:43:11;;;;;;;;;9.00;9.00;;;;;27.42;38.82;99904.72;5055815;28;45799;-71
2023/09/09 03:45:37;;;;;;;;;9.00;9.00;;;;;27.48;38.99;99916.97;5057618;28;46077;-72
2023/09/09 03:48:06;;;;;;;;;6.67;6.67;;;;;27.44;39.08;99910.03;5055843;28;45420;-71
2023/09/09 03:50:33;;;;;;;;;8.00;8.00;;;;;27.44;38.59;99916.25;5038812;28;45427;-71
2023/09/09 03:52:59;;;;;;;;;7.00;7.00;;;;;27.34;40.83;99931.06;5045278;28;46316;-72
2023/09/09 03:55:25;;;;;;;;;8.33;7.00;;;;;27.26;41.84;99927.88;5044446;28;45484;-71
2023/09/09 03:57:52;;;;;;;;;7.00;7.00;;;;;27.11;42.44;99932.13;5054478;28;45421;-71
2023/09/09 04:00:18;;;;;;;;;7.33;7.00;;;;;27.08;42.12;99938.53;5041130;28;45890;-72
2023/09/09 04:02:43;;;;;;;;;7.67;7.67;;;;;27.02;41.41;99930.78;5056642;28;46014;-72
2023/09/09 04:05:10;;;;;;;;;9.00;9.00;;;;;27.02;41.01;99925.41;5048304;28;45507;-72
2023/09/09 04:07:36;;;;;;;;;8.33;8.00;;;;;26.96;40.85;99918.53;5037037;28;45406;-72
2023/09/09 04:10:05;;;;;;;;;10.33;8.00;;;;;26.93;41.60;99932.06;5037295;28;45345;-71
2023/09/09 04:12:31;;;;;;;;;8.00;8.00;;;;;26.64;43.98;99945.97;5037162;28;46040;-71
2023/09/09 04:14:57;;;;;;;;;9.00;8.33;;;;;26.41;45.71;99950.53;5051707;28;45737;-71
2023/09/09 04:17:23;;;;;;;;;8.00;7.33;;;;;26.31;44.57;99944.72;5056805;28;45398;-71
2023/09/09 04:19:49;;;;;;;;;9.33;8.00;;;;;26.28;45.08;99947.56;5055004;28;45895;-71
2023/09/09 04:22:14;;;;;;;;;7.33;7.00;;;;;26.27;43.05;99942.25;5056422;28;45738;-71
2023/09/09 04:24:40;;;;;;;;;7.00;7.00;;;;;26.28;44.25;99939.53;5055228;28;45399;-70
2023/09/09 04:27:06;;;;;;;;;8.00;7.00;;;;;26.25;45.02;99928.06;5057407;28;45239;-73
2023/09/09 04:29:31;;;;;;;;;8.00;8.00;;;;;26.28;44.73;99934.16;5056863;28;45481;-71
2023/09/09 04:31:58;;;;;;;;;7.67;6.67;;;;;26.26;44.83;99948.53;5057136;28;45429;-71
2023/09/09 04:34:24;;;;;;;;;9.00;9.00;;;;;26.18;45.31;99949.75;5056668;28;45490;-71
2023/09/09 04:36:50;;;;;;;;;9.33;8.33;;;;;26.03;45.59;99954.91;5056828;28;45411;-71
2023/09/09 04:39:15;;;;;;;;;9.33;9.00;;;;;25.87;47.11;99946.66;5057539;28;45513;-71
2023/09/09 04:41:44;;;;;;;;;8.33;8.00;;;;;25.85;47.35;99957.41;5055540;28;46155;-71
2023/09/09 04:44:10;;;;;;;;;7.00;7.00;;;;;25.84;46.45;99963.69;5055534;28;45610;-71
2023/09/09 04:46:36;;;;;;;;;8.00;7.00;;;;;25.82;46.14;99959.34;5055684;28;45412;-71
2023/09/09 04:49:05;;;;;;;;;9.00;8.00;;;;;25.78;46.57;99963.94;5057219;28;45528;-71
2023/09/09 04:51:31;;;;;;;;;9.00;9.00;;;;;25.69;47.01;99957.19;5056614;28;45499;-71
2023/09/09 04:53:57;;;;;;;;;10.67;8.00;;;;;25.55;47.01;99952.41;5042415;28;45448;-71
2023/09/09 04:56:23;;;;;;;;;9.67;9.67;;;;;25.62;46.31;99962.84;5054479;28;45584;-71
2023/09/09 04:58:49;;;;;;;;;9.00;8.67;;;;;25.56;46.76;99959.50;5056111;28;45437;-71
2023/09/09 05:01:15;;;;;;;;;10.00;9.00;;;;;25.57;47.38;99966.59;5055785;28;46175;-71
2023/09/09 05:03:40;;;;;;;;;9.00;8.67;;;;;25.50;47.81;99973.13;5055924;28;45467;-71
2023/09/09 05:06:06;;;;;;;;;8.33;8.33;;;;;25.43;47.91;99977.00;5053676;28;45427;-71
2023/09/09 05:08:32;;;;;;;;;9.00;8.00;;;;;25.37;48.37;99972.75;5056050;28;45833;-71
2023/09/09 05:10:58;;;;;;;;;6.33;6.33;;;;;25.38;48.57;99982.50;5055785;28;46470;-74
2023/09/09 05:13:23;;;;;;;;;9.00;8.00;;;;;25.38;49.06;99997.69;5055932;28;45319;-71
2023/09/09 05:15:51;;;;;;;;;9.00;8.33;;;;;25.27;48.59;99989.22;5054551;28;45375;-71
2023/09/09 05:18:16;;;;;;;;;7.67;7.67;;;;;25.21;49.06;99987.66;5055992;28;45461;-71
2023/09/09 05:20:43;;;;;;;;;8.00;7.00;;;;;25.20;48.97;99983.22;5055457;28;45781;-71
2023/09/09 05:23:09;;;;;;;;;10.00;9.00;;;;;25.16;49.74;99982.44;5040445;28;45434;-71
2023/09/09 05:25:34;;;;;;;;;11.00;11.00;;;;;25.09;50.14;99980.97;5053504;28;45548;-71
2023/09/09 05:28:00;;;;;;;;;9.00;8.00;;;;;25.10;50.25;99995.19;5049313;28;45319;-71
2023/09/09 05:30:26;;;;;;;;;11.00;9.67;;;;;25.02;51.21;100004.38;5047693;28;45376;-71
2023/09/09 05:32:51;;;;;;;;;11.33;8.33;;;;;24.97;50.84;100005.50;5059314;28;45747;-71
2023/09/09 05:35:17;;;;;;;;;8.00;8.00;;;;;24.88;52.07;100017.38;5055080;28;45525;-71
2023/09/09 05:37:44;;;;;;;;;8.00;8.00;;;;;24.80;51.44;100006.13;5050071;28;45491;-79
2023/09/09 05:40:10;;;;;;;;;10.00;10.00;;;;;24.85;51.16;100019.28;5056612;28;45559;-72
2023/09/09 05:42:36;;;;;;;;;10.67;10.33;;;;;24.83;51.35;100030.06;5053042;28;45363;-71
2023/09/09 05:45:03;;;;;;;;;12.00;10.00;;;;;24.71;52.02;100006.44;5053716;28;45500;-71
2023/09/09 05:47:29;;;;;;;;;10.00;10.00;;;;;24.84;53.27;100023.78;5051850;28;45465;-71
2023/09/09 05:49:55;;;;;;;;;11.00;10.67;;;;;24.86;53.57;100029.06;5046626;28;46036;-71
2023/09/09 05:52:21;;;;;;;;;11.00;11.00;;;;;24.89;53.66;100015.59;5053115;28;45383;-72
2023/09/09 05:54:46;;;;;;;;;10.67;10.67;;;;;24.96;54.73;100017.09;5042911;28;45403;-73
2023/09/09 05:57:12;;;;;;;;;10.00;10.00;;;;;24.95;53.57;100023.41;5053317;28;45434;-73
2023/09/09 05:59:39;;;;;;;;;9.67;9.67;;;;;24.95;52.99;100026.06;5054989;28;45953;-71
2023/09/09 06:02:08;;;;;;;;;10.67;9.33;;;;;24.93;52.99;100026.13;5053180;28;45472;-71
2023/09/09 06:04:34;;;;;;;;;10.00;9.33;;;;;24.96;52.71;100028.66;5056247;28;45532;-71
2023/09/09 06:07:00;;;;;;;;;5.33;5.00;;;;;25.02;52.37;100031.09;5048221;28;45504;-71
2023/09/09 06:09:25;;;;;;;;;10.00;8.33;;;;;25.02;52.50;100020.41;5048758;28;45968;-71
2023/09/09 06:11:52;;;;;;;;;10.00;9.67;;;;;25.05;52.37;100022.13;5044136;28;45495;-71
2023/09/09 06:14:18;;;;;;;;;8.33;8.33;;;;;24.99;51.85;100023.22;5044550;28;45483;-72
2023/09/09 06:16:44;;;;;;;;;10.00;9.00;;;;;25.08;51.72;100029.13;5052618;28;45445;-71
2023/09/09 06:19:09;;;;;;;;;10.33;10.33;;;;;25.15;51.62;100026.16;5048621;28;45503;-72
2023/09/09 06:21:35;;;;;;;;;10.33;9.67;;;;;25.21;51.12;100014.38;5052090;28;45562;-73
2023/09/09 06:24:00;;;;;;;;;9.67;9.00;;;;;25.29;51.12;100011.44;5053108;28;45438;-73
2023/09/09 06:26:33;;;;;;;;;10.00;9.00;;;;;25.29;51.06;100000.75;5051601;28;45509;-72
2023/09/09 06:28:58;;;;;;;;;8.67;7.00;;;;;25.28;51.15;99983.81;5058426;28;45263;-76
2023/09/09 06:31:24;;;;;;;;;9.67;9.00;;;;;25.38;51.14;100000.34;5051936;28;45827;-74
2023/09/09 06:33:50;;;;;;;;;10.00;10.00;;;;;25.47;51.59;99996.47;5052289;28;45435;-70
2023/09/09 06:36:16;;;;;;;;;11.00;10.33;;;;;25.28;52.66;99996.31;5044765;28;45815;-71
2023/09/09 06:38:42;;;;;;;;;10.33;10.00;;;;;25.16;53.46;99998.50;5049404;28;45343;-71
2023/09/09 06:41:08;;;;;;;;;11.33;11.00;;;;;25.13;53.13;99989.75;5043877;28;45501;-73
2023/09/09 06:43:33;;;;;;;;;10.00;10.00;;;;;25.30;53.71;99997.13;5045085;28;45322;-72
2023/09/09 06:46:00;;;;;;;;;13.00;11.33;;;;;25.47;54.13;100000.00;5049966;28;45537;-78
2023/09/09 06:48:25;;;;;;;;;11.67;11.67;;;;;25.83;55.03;100001.22;5052998;28;46989;-70
2023/09/09 06:50:51;;;;;;;;;11.33;9.67;;;;;27.78;50.78;100013.84;5038188;28;45731;-70
2023/09/09 06:53:17;;;;;;;;;11.67;9.33;;;;;29.69;46.42;100007.19;5042612;28;45427;-71
2023/09/09 06:55:47;;;;;;;;;12.00;12.00;;;;;31.09;44.02;100000.59;5043876;28;45466;-71
2023/09/09 06:58:14;;;;;;;;;17.00;16.67;;;;;32.38;41.09;100024.44;5039535;28;45462;-78
2023/09/09 07:00:40;;;;;;;;;13.33;11.67;;;;;33.23;39.39;100026.63;5050087;28;45504;-71
2023/09/09 07:03:07;;;;;;;;;8.67;7.67;;;;;34.04;38.52;100015.16;5044676;28;45813;-71
2023/09/09 07:05:33;;;;;;;;;10.67;10.00;;;;;34.85;36.50;100017.94;5052939;28;45457;-71
2023/09/09 07:07:59;;;;;;;;;10.67;9.00;;;;;35.44;33.44;100006.81;5052614;28;45716;-71
2023/09/09 07:10:25;;;;;;;;;9.00;8.67;;;;;36.01;34.72;100009.34;5037451;28;45315;-71
2023/09/09 07:12:51;;;;;;;;;11.00;10.67;;;;;36.62;33.94;100004.06;5050857;28;45212;-71
2023/09/09 07:15:17;;;;;;;;;15.67;13.00;;;;;37.07;32.52;99999.25;5048398;28;45370;-72
2023/09/09 07:17:48;;;;;;;;;12.00;11.33;;;;;37.43;32.57;100000.53;5044668;28;46022;-71
2023/09/09 07:20:15;;;;;;;;;11.67;11.00;;;;;37.91;31.96;99998.88;5045454;28;45429;-71
2023/09/09 07:22:41;;;;;;;;;13.33;13.00;;;;;38.31;32.71;100001.44;5038279;28;45321;-71
2023/09/09 07:25:07;;;;;;;;;13.67;12.33;;;;;38.66;30.94;99996.34;5057887;28;45421;-72
2023/09/09 07:27:33;;;;;;;;;14.33;12.67;;;;;39.18;31.06;100004.94;5056445;28;46154;-71
2023/09/09 07:29:59;;;;;;;;;14.00;13.00;;;;;39.46;30.61;99996.75;5044756;28;47083;-73
2023/09/09 07:32:25;;;;;;;;;14.33;13.00;;;;;39.80;29.88;100009.72;5045394;28;45382;-71
2023/09/09 07:34:50;;;;;;;;;11.00;10.33;;;;;40.07;29.88;100009.66;5046197;28;45743;-71
2023/09/09 07:37:17;;;;;;;;;15.00;14.67;;;;;40.48;29.84;100014.59;5054477;28;45490;-71
2023/09/09 07:39:45;;;;;;;;;15.00;14.00;;;;;40.62;29.79;100004.94;5052236;28;45384;-71
2023/09/09 07:42:12;;;;;;;;;11.67;11.33;;;;;41.13;29.51;100006.75;5044085;28;45565;-70
2023/09/09 07:44:38;;;;;;;;;15.33;14.33;;;;;41.52;28.95;100008.09;5057430;28;45701;-84
2023/09/09 07:47:06;;;;;;;;;10.67;10.00;;;;;42.10;28.34;100004.44;5055557;28;46354;-72
2023/09/09 07:49:36;;;;;;;;;12.00;11.33;;;;;42.54;27.08;100018.81;5041355;28;45300;-72
2023/09/09 07:52:05;;;;;;;;;10.67;10.00;;;;;42.79;26.92;100006.72;5056557;28;45473;-71
2023/09/09 07:54:31;;;;;;;;;12.00;11.67;;;;;42.97;27.38;99992.78;5048540;28;45469;-72
2023/09/09 07:57:01;;;;;;;;;13.00;11.33;;;;;43.21;26.93;100005.53;5054192;28;46819;-71
2023/09/09 07:59:31;;;;;;;;;11.00;11.00;;;;;43.66;26.38;100003.94;5042805;28;45513;-83
2023/09/09 08:01:57;;;;;;;;;9.67;9.67;;;;;44.08;25.90;100001.78;5052932;28;45515;-83
2023/09/09 08:04:23;;;;;;;;;11.33;11.33;;;;;43.99;26.00;99992.72;5051894;28;45292;-71
2023/09/09 08:06:52;;;;;;;;;11.00;10.00;;;;;44.22;25.93;100002.84;5058700;28;45298;-74
2023/09/09 08:09:20;;;;;;;;;11.67;11.33;;;;;44.40;25.58;99994.25;5048040;28;45611;-71
2023/09/09 08:11:49;;;;;;;;;13.67;13.00;;;;;44.55;25.24;99984.13;5047653;28;45385;-77
2023/09/09 08:14:18;;;;;;;;;12.00;12.00;;;;;44.93;24.52;99989.56;5047270;28;45520;-72
2023/09/09 08:16:44;;;;;;;;;11.00;11.00;;;;;45.17;24.89;99984.78;5048782;28;46225;-74
2023/09/09 08:19:10;;;;;;;;;11.33;11.00;;;;;45.39;24.74;99994.81;5045752;28;45477;-76
2023/09/09 08:21:36;;;;;;;;;11.00;10.33;;;;;45.65;24.52;100005.31;5041204;28;45462;-71
2023/09/09 08:24:01;;;;;;;;;15.00;14.33;;;;;45.98;24.29;100003.91;5043578;28;45865;-72
2023/09/09 08:26:28;;;;;;;;;16.00;13.00;;;;;46.43;23.62;100013.69;5041647;28;45368;-71
2023/09/09 08:28:54;;;;;;;;;13.67;13.33;;;;;46.77;23.34;100019.41;5053310;28;45224;-72
2023/09/09 08:31:20;;;;;;;;;14.33;14.33;;;;;47.28;23.51;100016.31;5049874;28;45548;-72
2023/09/09 08:33:47;;;;;;;;;14.33;13.67;;;;;47.43;23.29;100021.69;5051741;28;45536;-73
2023/09/09 08:36:15;;;;;;;;;9.00;9.00;;;;;47.53;21.97;100016.59;5043070;28;46251;-72
2023/09/09 08:38:41;;;;;;;;;9.33;9.33;;;;;47.29;21.44;100009.72;5054753;28;45359;-72
2023/09/09 08:41:38;;;;;;;;;12.00;11.33;;;;;47.41;22.02;100013.56;5040192;28;45608;-71
2023/09/09 08:44:44;;;;;;;;;10.00;9.00;;;;;47.38;22.73;100015.94;5020726;28;45441;-72
2023/09/09 08:47:10;;;;;;;;;11.33;10.67;;;;;47.74;22.81;100014.75;5054795;28;46085;-72
2023/09/09 08:49:38;;;;;;;;;11.33;11.00;;;;;48.32;21.38;100017.81;5041023;28;45269;-73
2023/09/09 08:52:16;;;;;;;;;13.00;13.00;;;;;48.10;21.75;100019.09;5051510;28;45515;-72
2023/09/09 08:54:42;;;;;;;;;11.00;11.00;;;;;47.85;21.26;100005.81;5049924;28;45424;-72
2023/09/09 08:57:08;;;;;;;;;12.00;11.67;;;;;47.93;21.05;100029.72;5055383;28;46102;-72
2023/09/09 08:59:35;;;;;;;;;11.67;10.33;;;;;47.40;21.85;100019.34;5051144;28;45532;-72
2023/09/09 09:02:02;;;;;;;;;10.67;10.00;;;;;47.68;20.95;100027.53;5047252;28;45358;-72
2023/09/09 09:04:31;;;;;;;;;12.67;12.33;;;;;46.98;22.10;100022.13;5054494;28;45482;-71
2023/09/09 09:06:58;;;;;;;;;13.33;12.33;;;;;46.88;22.27;100023.53;5055331;28;45442;-72
2023/09/09 09:09:24;;;;;;;;;12.67;12.67;;;;;46.94;22.54;100031.00;5050921;28;45780;-72
2023/09/09 09:11:50;;;;;;;;;12.67;12.33;;;;;45.95;23.30;100038.28;5035934;28;45368;-72
2023/09/09 09:14:16;;;;;;;;;15.33;14.33;;;;;44.34;24.86;100023.38;5047096;28;45342;-72
2023/09/09 09:16:44;;;;;;;;;11.67;11.00;;;;;43.39;25.72;100023.69;5054117;28;45484;-71
2023/09/09 09:19:24;;;;;;;;;10.33;10.33;;;;;42.54;26.87;100021.56;5055350;28;45605;-71
2023/09/09 09:21:51;;;;;;;;;13.33;13.00;;;;;42.02;27.93;100020.91;5055131;28;45523;-71
2023/09/09 09:24:22;;;;;;;;;13.33;12.67;;;;;41.86;28.12;100018.97;5038421;28;45466;-70
2023/09/09 09:26:47;;;;;;;;;13.33;12.67;;;;;41.98;28.16;100027.69;5053503;28;46235;-76
2023/09/09 09:29:13;;;;;;;;;12.00;12.00;;;;;41.48;28.75;100034.97;5051203;28;45402;-76
2023/09/09 09:31:39;;;;;;;;;13.67;13.33;;;;;40.75;28.89;100022.66;5044117;28;45497;-79
2023/09/09 09:34:08;;;;;;;;;10.67;10.67;;;;;40.55;28.72;100030.22;5054816;28;46485;-77
2023/09/09 09:36:34;;;;;;;;;14.00;12.67;;;;;40.25;28.22;100015.09;5068539;28;46045;-78
2023/09/09 09:39:10;;;;;;;;;13.67;12.67;;;;;40.55;29.69;100035.69;5055144;28;45426;-79
2023/09/09 09:41:39;;;;;;;;;12.00;10.33;;;;;41.13;27.27;100025.06;5069282;28;45435;-73
2023/09/09 09:44:16;;;;;;;;;9.67;8.67;;;;;41.33;26.29;100029.28;5051447;28;45420;-72
2023/09/09 09:46:42;;;;;;;;;12.00;11.33;;;;;41.14;27.02;100032.25;5047262;28;46025;-70
2023/09/09 09:49:10;;;;;;;;;10.33;10.33;;;;;40.97;25.37;100031.34;5042609;28;45577;-74
2023/09/09 09:51:45;;;;;;;;;9.67;9.67;;;;;41.17;24.52;100026.47;5050530;28;45457;-70
2023/09/09 09:54:16;;;;;;;;;10.00;10.00;;;;;41.80;24.37;100018.78;5044648;28;45287;-75
2023/09/09 09:56:42;;;;;;;;;9.00;9.00;;;;;42.31;24.18;100014.03;5053998;28;45438;-70
2023/09/09 09:59:09;;;;;;;;;10.33;10.33;;;;;42.71;23.13;100009.50;5042222;28;45543;-69
2023/09/09 10:01:36;;;;;;;;;9.00;9.00;;;;;42.92;23.37;100000.72;5049324;28;45291;-71
2023/09/09 10:04:06;;;;;;;;;9.00;9.00;;;;;43.72;22.97;100009.78;5045265;28;45645;-71
2023/09/09 10:06:34;;;;;;;;;12.00;10.67;;;;;44.13;22.53;100006.72;5042599;28;46260;-70
2023/09/09 10:09:18;;;;;;;;;10.33;10.33;;;;;44.55;21.99;100010.78;5044004;28;45415;-71
2023/09/09 10:12:02;;;;;;;;;9.67;9.00;;;;;44.81;22.15;100011.19;5044424;28;45615;-70
2023/09/09 10:14:30;;;;;;;;;8.67;8.00;;;;;44.81;22.40;100002.94;5047126;28;45497;-70
2023/09/09 10:16:58;;;;;;;;;8.67;8.67;;;;;44.74;21.58;100010.25;5045590;28;45593;-71
2023/09/09 10:19:26;;;;;;;;;9.00;9.00;;;;;44.34;21.47;100011.53;5055816;28;45527;-71
2023/09/09 10:21:55;;;;;;;;;9.67;9.67;;;;;43.86;21.57;100006.22;5052053;28;45867;-70
2023/09/09 10:24:21;;;;;;;;;9.67;9.67;;;;;43.32;22.83;100000.69;5049080;28;45418;-70
2023/09/09 10:26:48;;;;;;;;;8.00;8.00;;;;;42.80;23.59;99996.59;5048646;28;45638;-70
2023/09/09 10:29:15;;;;;;;;;11.00;11.00;;;;;42.57;24.26;99996.50;5041054;28;45252;-70
2023/09/09 10:31:42;;;;;;;;;12.67;12.00;;;;;42.63;24.75;99988.41;5053008;28;45383;-70
2023/09/09 10:34:09;;;;;;;;;10.67;10.67;;;;;43.02;23.39;99990.38;5051102;28;45494;-71
2023/09/09 10:36:41;;;;;;;;;9.67;9.00;;;;;43.15;22.99;99991.69;5042589;28;45472;-71
2023/09/09 10:39:09;;;;;;;;;9.00;9.00;;;;;43.37;24.16;99990.88;5054146;28;45571;-71
2023/09/09 10:41:35;;;;;;;;;9.33;9.33;;;;;43.39;23.29;99994.31;5058268;28;45457;-70
2023/09/09 10:44:01;;;;;;;;;11.00;11.00;;;;;43.13;23.85;99977.25;5047870;28;45492;-70
2023/09/09 10:46:34;;;;;;;;;10.00;9.00;;;;;43.20;24.44;99981.84;5057562;28;46577;-70
2023/09/09 10:49:03;;;;;;;;;10.00;10.00;;;;;43.17;25.11;99987.69;5057853;28;45488;-70
2023/09/09 10:51:29;;;;;;;;;12.33;12.00;;;;;42.91;25.61;99985.25;5056778;28;45275;-70
2023/09/09 10:54:11;;;;;;;;;12.00;11.33;;;;;43.05;25.82;99991.88;5057195;28;45621;-71
2023/09/09 10:56:47;;;;;;;;;11.00;11.00;;;;;42.85;25.24;99989.53;5047628;28;46120;-70
2023/09/09 10:59:17;;;;;;;;;14.33;14.33;;;;;42.80;25.49;99989.22;5052580;28;45998;-70
2023/09/09 11:01:43;;;;;;;;;11.67;10.33;;;;;42.88;25.41;99989.22;5042479;28;45351;-71
2023/09/09 11:04:20;;;;;;;;;12.67;12.67;;;;;42.90;25.11;99994.53;5057669;28;45557;-70
2023/09/09 11:07:08;;;;;;;;;13.00;12.00;;;;;42.88;24.03;100002.13;5057740;28;45523;-70
2023/09/09 11:09:37;;;;;;;;;14.00;13.00;;;;;42.65;24.89;99985.50;5052696;28;45582;-70
2023/09/09 11:12:16;;;;;;;;;15.33;13.00;;;;;42.56;26.32;99992.03;5045543;28;45384;-72
2023/09/09 11:14:47;;;;;;;;;13.00;12.33;;;;;42.62;26.13;99994.06;5042593;28;45510;-70
2023/09/09 11:17:13;;;;;;;;;12.00;12.00;;;;;42.45;25.53;99988.63;5054926;28;45561;-70
2023/09/09 11:19:43;;;;;;;;;10.33;10.33;;;;;42.33;25.81;99985.34;5050820;28;45890;-70
2023/09/09 11:22:11;;;;;;;;;11.33;9.67;;;;;42.38;26.25;99981.22;5048731;28;45417;-71